sensor_id;sensor_type;location;lat;lon;timestamp;temperature;humidity
21570;DHT22;57598;50.888;4.746;2023-05-07T00:00:49;15.80;99.90
21570;DHT22;57598;50.888;4.746;2023-05-07T00:03:16;15.70;99.90
21570;DHT22;57598;50.888;4.746;2023-05-07T00:05:44;15.70;99.90
21570;DHT22;57598;50.888;4.746;2023-05-07T00:08:12;15.60;99.90
21570;DHT22;57598;50.888;4.746;2023-05-07T00:10:39;15.70;99.90
21570;DHT22;57598;50.888;4.746;2023-05-07T00:13:07;15.70;99.90
21570;DHT22;57598;50.888;4.746;2023-05-07T00:15:34;15.70;99.90
21570;DHT22;57598;50.888;4.746;2023-05-07T00:18:01;15.80;99.90
21570;DHT22;57598;50.888;4.746;2023-05-07T00:20:28;15.80;99.90
21570;DHT22;57598;50.888;4.746;2023-05-07T00:22:55;15.90;99.90
21570;DHT22;57598;50.888;4.746;2023-05-07T00:25:22;15.90;99.90
21570;DHT22;57598;50.888;4.746;2023-05-07T00:27:49;15.90;99.90
21570;DHT22;57598;50.888;4.746;2023-05-07T00:30:18;15.90;99.90
21570;DHT22;57598;50.888;4.746;2023-05-07T00:32:45;15.90;99.90
21570;DHT22;57598;50.888;4.746;2023-05-07T00:35:14;15.90;99.90
21570;DHT22;57598;50.888;4.746;2023-05-07T00:37:41;15.90;99.90
21570;DHT22;57598;50.888;4.746;2023-05-07T00:40:09;15.90;99.90
21570;DHT22;57598;50.888;4.746;2023-05-07T00:42:36;15.90;99.90
21570;DHT22;57598;50.888;4.746;2023-05-07T00:45:03;15.80;99.90
21570;DHT22;57598;50.888;4.746;2023-05-07T00:47:32;15.80;99.90
21570;DHT22;57598;50.888;4.746;2023-05-07T00:49:59;15.80;99.90
21570;DHT22;57598;50.888;4.746;2023-05-07T00:52:26;15.80;99.90
21570;DHT22;57598;50.888;4.746;2023-05-07T00:54:54;15.80;99.90
21570;DHT22;57598;50.888;4.746;2023-05-07T00:57:22;15.80;99.90
21570;DHT22;57598;50.888;4.746;2023-05-07T00:59:51;15.80;99.90
21570;DHT22;57598;50.888;4.746;2023-05-07T01:02:18;15.80;99.90
21570;DHT22;57598;50.888;4.746;2023-05-07T01:04:47;15.70;99.90
21570;DHT22;57598;50.888;4.746;2023-05-07T01:07:14;15.70;99.90
21570;DHT22;57598;50.888;4.746;2023-05-07T01:09:41;15.80;99.90
21570;DHT22;57598;50.888;4.746;2023-05-07T01:12:08;15.80;99.90
21570;DHT22;57598;50.888;4.746;2023-05-07T01:14:35;15.80;99.90
21570;DHT22;57598;50.888;4.746;2023-05-07T01:17:02;15.80;99.90
21570;DHT22;57598;50.888;4.746;2023-05-07T01:19:30;15.90;99.90
21570;DHT22;57598;50.888;4.746;2023-05-07T01:22:04;15.90;99.90
21570;DHT22;57598;50.888;4.746;2023-05-07T01:24:36;15.90;99.90
21570;DHT22;57598;50.888;4.746;2023-05-07T01:27:03;15.90;99.90
21570;DHT22;57598;50.888;4.746;2023-05-07T01:29:30;15.90;99.90
21570;DHT22;57598;50.888;4.746;2023-05-07T01:31:59;15.80;99.90
21570;DHT22;57598;50.888;4.746;2023-05-07T01:34:28;15.80;99.90
21570;DHT22;57598;50.888;4.746;2023-05-07T01:36:58;15.80;99.90
21570;DHT22;57598;50.888;4.746;2023-05-07T01:39:28;15.80;99.90
21570;DHT22;57598;50.888;4.746;2023-05-07T01:41:57;15.80;99.90
21570;DHT22;57598;50.888;4.746;2023-05-07T01:44:26;15.70;99.90
21570;DHT22;57598;50.888;4.746;2023-05-07T01:46:53;15.70;99.90
21570;DHT22;57598;50.888;4.746;2023-05-07T01:49:21;15.80;99.90
21570;DHT22;57598;50.888;4.746;2023-05-07T01:51:48;15.80;99.90
21570;DHT22;57598;50.888;4.746;2023-05-07T01:54:15;15.80;99.90
21570;DHT22;57598;50.888;4.746;2023-05-07T01:56:43;15.80;99.90
21570;DHT22;57598;50.888;4.746;2023-05-07T01:59:11;15.80;99.90
21570;DHT22;57598;50.888;4.746;2023-05-07T02:01:39;15.80;99.90
21570;DHT22;57598;50.888;4.746;2023-05-07T02:04:06;15.80;99.90
21570;DHT22;57598;50.888;4.746;2023-05-07T02:06:33;15.80;99.90
21570;DHT22;57598;50.888;4.746;2023-05-07T02:08:59;15.70;99.90
21570;DHT22;57598;50.888;4.746;2023-05-07T02:11:26;15.80;99.90
21570;DHT22;57598;50.888;4.746;2023-05-07T02:13:53;15.70;99.90
21570;DHT22;57598;50.888;4.746;2023-05-07T02:16:22;15.80;99.90
21570;DHT22;57598;50.888;4.746;2023-05-07T02:18:49;15.70;99.90
21570;DHT22;57598;50.888;4.746;2023-05-07T02:21:16;15.70;99.90
21570;DHT22;57598;50.888;4.746;2023-05-07T02:23:43;15.80;99.90
21570;DHT22;57598;50.888;4.746;2023-05-07T02:26:11;15.80;99.90
21570;DHT22;57598;50.888;4.746;2023-05-07T02:28:38;15.80;99.90
21570;DHT22;57598;50.888;4.746;2023-05-07T02:31:05;15.80;99.90
21570;DHT22;57598;50.888;4.746;2023-05-07T02:33:33;15.80;99.90
21570;DHT22;57598;50.888;4.746;2023-05-07T02:36:08;15.70;99.90
21570;DHT22;57598;50.888;4.746;2023-05-07T02:38:35;15.60;99.90
21570;DHT22;57598;50.888;4.746;2023-05-07T02:41:02;15.70;99.90
21570;DHT22;57598;50.888;4.746;2023-05-07T02:43:29;15.70;99.90
21570;DHT22;57598;50.888;4.746;2023-05-07T02:46:03;15.70;99.90
21570;DHT22;57598;50.888;4.746;2023-05-07T02:48:30;15.70;99.90
21570;DHT22;57598;50.888;4.746;2023-05-07T02:50:59;15.70;99.90
21570;DHT22;57598;50.888;4.746;2023-05-07T02:53:26;15.70;99.90
21570;DHT22;57598;50.888;4.746;2023-05-07T02:55:56;15.80;99.90
21570;DHT22;57598;50.888;4.746;2023-05-07T02:58:24;15.80;99.90
21570;DHT22;57598;50.888;4.746;2023-05-07T03:00:51;15.80;99.90
21570;DHT22;57598;50.888;4.746;2023-05-07T03:03:18;15.80;99.90
21570;DHT22;57598;50.888;4.746;2023-05-07T03:05:45;15.80;99.90
21570;DHT22;57598;50.888;4.746;2023-05-07T03:08:13;15.80;99.90
21570;DHT22;57598;50.888;4.746;2023-05-07T03:10:40;15.80;99.90
21570;DHT22;57598;50.888;4.746;2023-05-07T03:13:07;15.80;99.90
21570;DHT22;57598;50.888;4.746;2023-05-07T03:15:34;15.80;99.90
21570;DHT22;57598;50.888;4.746;2023-05-07T03:18:02;15.70;99.90
21570;DHT22;57598;50.888;4.746;2023-05-07T03:20:29;15.80;99.90
21570;DHT22;57598;50.888;4.746;2023-05-07T03:22:56;15.80;99.90
21570;DHT22;57598;50.888;4.746;2023-05-07T03:25:24;15.70;99.90
21570;DHT22;57598;50.888;4.746;2023-05-07T03:27:51;15.70;99.90
21570;DHT22;57598;50.888;4.746;2023-05-07T03:30:18;15.70;99.90
21570;DHT22;57598;50.888;4.746;2023-05-07T03:32:45;15.70;99.90
21570;DHT22;57598;50.888;4.746;2023-05-07T03:35:12;15.70;99.90
21570;DHT22;57598;50.888;4.746;2023-05-07T03:37:40;15.70;99.90
21570;DHT22;57598;50.888;4.746;2023-05-07T03:40:07;15.70;99.90
21570;DHT22;57598;50.888;4.746;2023-05-07T03:42:37;15.70;99.90
21570;DHT22;57598;50.888;4.746;2023-05-07T03:45:04;15.70;99.90
21570;DHT22;57598;50.888;4.746;2023-05-07T03:47:31;15.70;99.90
21570;DHT22;57598;50.888;4.746;2023-05-07T03:49:58;15.70;99.90
21570;DHT22;57598;50.888;4.746;2023-05-07T03:52:25;15.60;99.90
21570;DHT22;57598;50.888;4.746;2023-05-07T03:54:53;15.60;99.90
21570;DHT22;57598;50.888;4.746;2023-05-07T03:57:20;15.60;99.90
21570;DHT22;57598;50.888;4.746;2023-05-07T03:59:48;15.60;99.90
21570;DHT22;57598;50.888;4.746;2023-05-07T04:02:15;15.60;99.90
21570;DHT22;57598;50.888;4.746;2023-05-07T04:04:42;15.60;99.90
21570;DHT22;57598;50.888;4.746;2023-05-07T04:07:09;15.60;99.90
21570;DHT22;57598;50.888;4.746;2023-05-07T04:09:36;15.60;99.90
21570;DHT22;57598;50.888;4.746;2023-05-07T04:12:04;15.60;99.90
21570;DHT22;57598;50.888;4.746;2023-05-07T04:14:31;15.60;99.90
21570;DHT22;57598;50.888;4.746;2023-05-07T04:17:00;15.60;99.90
21570;DHT22;57598;50.888;4.746;2023-05-07T04:19:27;15.60;99.90
21570;DHT22;57598;50.888;4.746;2023-05-07T04:21:54;15.50;99.90
21570;DHT22;57598;50.888;4.746;2023-05-07T04:24:21;15.60;99.90
21570;DHT22;57598;50.888;4.746;2023-05-07T04:26:48;15.60;99.90
21570;DHT22;57598;50.888;4.746;2023-05-07T04:29:16;15.50;99.90
21570;DHT22;57598;50.888;4.746;2023-05-07T04:31:43;15.60;99.90
21570;DHT22;57598;50.888;4.746;2023-05-07T04:34:12;15.50;99.90
21570;DHT22;57598;50.888;4.746;2023-05-07T04:36:39;15.50;99.90
21570;DHT22;57598;50.888;4.746;2023-05-07T04:39:07;15.50;99.90
21570;DHT22;57598;50.888;4.746;2023-05-07T04:41:35;15.50;99.90
21570;DHT22;57598;50.888;4.746;2023-05-07T04:44:02;15.50;99.90
21570;DHT22;57598;50.888;4.746;2023-05-07T04:46:31;15.50;99.90
21570;DHT22;57598;50.888;4.746;2023-05-07T04:48:58;15.50;99.90
21570;DHT22;57598;50.888;4.746;2023-05-07T04:51:26;15.50;99.90
21570;DHT22;57598;50.888;4.746;2023-05-07T04:53:53;15.40;99.90
21570;DHT22;57598;50.888;4.746;2023-05-07T04:56:20;15.50;99.90
21570;DHT22;57598;50.888;4.746;2023-05-07T04:58:47;15.50;99.90
21570;DHT22;57598;50.888;4.746;2023-05-07T05:01:14;15.50;99.90
21570;DHT22;57598;50.888;4.746;2023-05-07T05:03:41;15.50;99.90
21570;DHT22;57598;50.888;4.746;2023-05-07T05:06:08;15.50;99.90
21570;DHT22;57598;50.888;4.746;2023-05-07T05:08:37;15.50;99.90
21570;DHT22;57598;50.888;4.746;2023-05-07T05:11:04;15.50;99.90
21570;DHT22;57598;50.888;4.746;2023-05-07T05:13:31;15.50;99.90
21570;DHT22;57598;50.888;4.746;2023-05-07T05:15:58;15.60;99.90
21570;DHT22;57598;50.888;4.746;2023-05-07T05:18:25;15.60;99.90
21570;DHT22;57598;50.888;4.746;2023-05-07T05:20:52;15.60;99.90
21570;DHT22;57598;50.888;4.746;2023-05-07T05:23:19;15.70;99.90
21570;DHT22;57598;50.888;4.746;2023-05-07T05:25:48;15.80;99.90
21570;DHT22;57598;50.888;4.746;2023-05-07T05:28:15;15.90;99.90
21570;DHT22;57598;50.888;4.746;2023-05-07T05:30:41;15.90;99.90
21570;DHT22;57598;50.888;4.746;2023-05-07T05:33:08;15.90;99.90
21570;DHT22;57598;50.888;4.746;2023-05-07T05:35:35;16.10;99.90
21570;DHT22;57598;50.888;4.746;2023-05-07T05:38:02;16.10;99.90
21570;DHT22;57598;50.888;4.746;2023-05-07T05:40:29;16.10;99.90
21570;DHT22;57598;50.888;4.746;2023-05-07T05:42:58;16.10;99.90
21570;DHT22;57598;50.888;4.746;2023-05-07T05:45:25;16.10;99.90
21570;DHT22;57598;50.888;4.746;2023-05-07T05:47:52;16.20;99.90
21570;DHT22;57598;50.888;4.746;2023-05-07T05:50:19;16.20;99.90
21570;DHT22;57598;50.888;4.746;2023-05-07T05:52:46;16.30;99.90
21570;DHT22;57598;50.888;4.746;2023-05-07T05:55:13;16.30;99.90
21570;DHT22;57598;50.888;4.746;2023-05-07T05:57:40;16.30;99.90
21570;DHT22;57598;50.888;4.746;2023-05-07T06:00:10;16.30;99.90
21570;DHT22;57598;50.888;4.746;2023-05-07T06:02:37;16.40;99.90
21570;DHT22;57598;50.888;4.746;2023-05-07T06:05:05;16.40;99.90
21570;DHT22;57598;50.888;4.746;2023-05-07T06:07:32;16.50;99.90
21570;DHT22;57598;50.888;4.746;2023-05-07T06:10:00;16.50;99.90
21570;DHT22;57598;50.888;4.746;2023-05-07T06:12:27;16.50;99.90
21570;DHT22;57598;50.888;4.746;2023-05-07T06:14:54;16.50;99.90
21570;DHT22;57598;50.888;4.746;2023-05-07T06:17:22;16.60;99.90
21570;DHT22;57598;50.888;4.746;2023-05-07T06:19:49;16.60;99.90
21570;DHT22;57598;50.888;4.746;2023-05-07T06:22:16;16.60;99.90
21570;DHT22;57598;50.888;4.746;2023-05-07T06:24:43;16.70;99.90
21570;DHT22;57598;50.888;4.746;2023-05-07T06:27:10;16.80;99.90
21570;DHT22;57598;50.888;4.746;2023-05-07T06:29:37;17.00;99.90
21570;DHT22;57598;50.888;4.746;2023-05-07T06:32:08;17.10;99.90
21570;DHT22;57598;50.888;4.746;2023-05-07T06:34:37;17.20;99.90
21570;DHT22;57598;50.888;4.746;2023-05-07T06:37:04;17.10;99.90
21570;DHT22;57598;50.888;4.746;2023-05-07T06:39:31;17.10;99.90
21570;DHT22;57598;50.888;4.746;2023-05-07T06:41:58;17.10;99.90
21570;DHT22;57598;50.888;4.746;2023-05-07T06:44:25;17.10;99.90
21570;DHT22;57598;50.888;4.746;2023-05-07T06:46:52;17.00;99.90
21570;DHT22;57598;50.888;4.746;2023-05-07T06:49:19;17.00;99.90
21570;DHT22;57598;50.888;4.746;2023-05-07T06:51:47;16.90;99.90
21570;DHT22;57598;50.888;4.746;2023-05-07T06:54:14;16.90;99.90
21570;DHT22;57598;50.888;4.746;2023-05-07T06:56:41;16.90;99.90
21570;DHT22;57598;50.888;4.746;2023-05-07T06:59:08;16.90;99.90
21570;DHT22;57598;50.888;4.746;2023-05-07T07:01:35;16.80;99.90
21570;DHT22;57598;50.888;4.746;2023-05-07T07:04:03;16.80;99.90
21570;DHT22;57598;50.888;4.746;2023-05-07T07:06:30;16.80;99.90
21570;DHT22;57598;50.888;4.746;2023-05-07T07:08:59;16.80;99.90
21570;DHT22;57598;50.888;4.746;2023-05-07T07:11:26;16.80;99.90
21570;DHT22;57598;50.888;4.746;2023-05-07T07:13:53;16.90;99.90
21570;DHT22;57598;50.888;4.746;2023-05-07T07:16:21;17.00;99.90
21570;DHT22;57598;50.888;4.746;2023-05-07T07:18:48;17.00;99.90
21570;DHT22;57598;50.888;4.746;2023-05-07T07:21:15;17.20;99.90
21570;DHT22;57598;50.888;4.746;2023-05-07T07:23:42;17.20;99.90
21570;DHT22;57598;50.888;4.746;2023-05-07T07:26:10;17.20;99.90
21570;DHT22;57598;50.888;4.746;2023-05-07T07:28:42;17.30;99.90
21570;DHT22;57598;50.888;4.746;2023-05-07T07:31:10;17.40;99.90
21570;DHT22;57598;50.888;4.746;2023-05-07T07:33:37;17.40;99.90
21570;DHT22;57598;50.888;4.746;2023-05-07T07:36:05;17.40;99.90
21570;DHT22;57598;50.888;4.746;2023-05-07T07:38:32;17.40;99.90
21570;DHT22;57598;50.888;4.746;2023-05-07T07:41:00;17.40;99.90
21570;DHT22;57598;50.888;4.746;2023-05-07T07:43:28;17.40;99.90
21570;DHT22;57598;50.888;4.746;2023-05-07T07:45:55;17.40;99.90
21570;DHT22;57598;50.888;4.746;2023-05-07T07:48:22;17.40;99.90
21570;DHT22;57598;50.888;4.746;2023-05-07T07:50:49;17.40;99.90
21570;DHT22;57598;50.888;4.746;2023-05-07T07:53:17;17.50;99.90
21570;DHT22;57598;50.888;4.746;2023-05-07T07:55:44;17.50;99.90
21570;DHT22;57598;50.888;4.746;2023-05-07T07:58:11;17.60;99.90
21570;DHT22;57598;50.888;4.746;2023-05-07T08:00:39;17.50;99.90
21570;DHT22;57598;50.888;4.746;2023-05-07T08:03:09;17.50;99.90
21570;DHT22;57598;50.888;4.746;2023-05-07T08:05:36;17.60;99.90
21570;DHT22;57598;50.888;4.746;2023-05-07T08:08:04;17.50;99.90
21570;DHT22;57598;50.888;4.746;2023-05-07T08:10:31;17.40;99.90
21570;DHT22;57598;50.888;4.746;2023-05-07T08:13:00;17.50;99.90
21570;DHT22;57598;50.888;4.746;2023-05-07T08:15:27;17.50;99.90
21570;DHT22;57598;50.888;4.746;2023-05-07T08:17:55;17.60;99.90
21570;DHT22;57598;50.888;4.746;2023-05-07T08:20:23;17.80;99.90
21570;DHT22;57598;50.888;4.746;2023-05-07T08:22:51;17.90;99.90
21570;DHT22;57598;50.888;4.746;2023-05-07T08:25:18;17.70;99.90
21570;DHT22;57598;50.888;4.746;2023-05-07T08:27:46;17.80;99.90
21570;DHT22;57598;50.888;4.746;2023-05-07T08:30:13;17.80;99.90
21570;DHT22;57598;50.888;4.746;2023-05-07T08:32:41;17.80;99.90
21570;DHT22;57598;50.888;4.746;2023-05-07T08:35:09;17.80;99.90
21570;DHT22;57598;50.888;4.746;2023-05-07T08:37:36;17.80;99.90
21570;DHT22;57598;50.888;4.746;2023-05-07T08:40:04;17.70;99.90
21570;DHT22;57598;50.888;4.746;2023-05-07T08:42:35;17.90;99.90
21570;DHT22;57598;50.888;4.746;2023-05-07T08:45:03;17.80;99.90
21570;DHT22;57598;50.888;4.746;2023-05-07T08:47:38;17.80;99.90
21570;DHT22;57598;50.888;4.746;2023-05-07T08:50:09;17.80;99.90
21570;DHT22;57598;50.888;4.746;2023-05-07T08:52:36;17.70;99.90
21570;DHT22;57598;50.888;4.746;2023-05-07T08:55:04;17.60;99.90
21570;DHT22;57598;50.888;4.746;2023-05-07T08:57:31;17.60;99.90
21570;DHT22;57598;50.888;4.746;2023-05-07T08:59:58;17.70;99.90
21570;DHT22;57598;50.888;4.746;2023-05-07T09:02:25;17.70;99.90
21570;DHT22;57598;50.888;4.746;2023-05-07T09:04:52;17.70;99.90
21570;DHT22;57598;50.888;4.746;2023-05-07T09:07:21;17.80;99.90
21570;DHT22;57598;50.888;4.746;2023-05-07T09:09:49;17.80;99.90
21570;DHT22;57598;50.888;4.746;2023-05-07T09:12:17;17.80;99.90
21570;DHT22;57598;50.888;4.746;2023-05-07T09:14:44;17.80;99.90
21570;DHT22;57598;50.888;4.746;2023-05-07T09:17:12;17.90;99.90
21570;DHT22;57598;50.888;4.746;2023-05-07T09:19:39;17.90;99.90
21570;DHT22;57598;50.888;4.746;2023-05-07T09:22:06;17.80;99.90
21570;DHT22;57598;50.888;4.746;2023-05-07T09:24:35;17.80;99.90
21570;DHT22;57598;50.888;4.746;2023-05-07T09:27:04;17.60;99.90
21570;DHT22;57598;50.888;4.746;2023-05-07T09:29:31;17.60;99.90
21570;DHT22;57598;50.888;4.746;2023-05-07T09:32:01;17.50;99.90
21570;DHT22;57598;50.888;4.746;2023-05-07T09:34:29;17.50;99.90
21570;DHT22;57598;50.888;4.746;2023-05-07T09:36:57;17.50;99.90
21570;DHT22;57598;50.888;4.746;2023-05-07T09:39:25;17.50;99.90
21570;DHT22;57598;50.888;4.746;2023-05-07T09:41:54;17.50;99.90
21570;DHT22;57598;50.888;4.746;2023-05-07T09:44:21;17.60;99.90
21570;DHT22;57598;50.888;4.746;2023-05-07T09:46:54;17.60;99.90
21570;DHT22;57598;50.888;4.746;2023-05-07T09:49:22;17.70;99.90
21570;DHT22;57598;50.888;4.746;2023-05-07T09:51:51;17.70;99.90
21570;DHT22;57598;50.888;4.746;2023-05-07T09:54:18;17.70;99.90
21570;DHT22;57598;50.888;4.746;2023-05-07T09:56:46;17.80;99.90
21570;DHT22;57598;50.888;4.746;2023-05-07T09:59:16;17.80;99.90
21570;DHT22;57598;50.888;4.746;2023-05-07T10:01:44;17.80;99.90
21570;DHT22;57598;50.888;4.746;2023-05-07T10:04:12;17.80;99.90
21570;DHT22;57598;50.888;4.746;2023-05-07T10:06:39;17.80;99.90
21570;DHT22;57598;50.888;4.746;2023-05-07T10:09:07;17.80;99.90
21570;DHT22;57598;50.888;4.746;2023-05-07T10:11:35;17.90;99.90
21570;DHT22;57598;50.888;4.746;2023-05-07T10:14:03;17.90;99.90
21570;DHT22;57598;50.888;4.746;2023-05-07T10:16:33;17.90;99.90
21570;DHT22;57598;50.888;4.746;2023-05-07T10:19:02;17.80;99.90
21570;DHT22;57598;50.888;4.746;2023-05-07T10:21:30;17.90;99.90
21570;DHT22;57598;50.888;4.746;2023-05-07T10:24:00;17.90;99.90
21570;DHT22;57598;50.888;4.746;2023-05-07T10:26:32;17.80;99.90
21570;DHT22;57598;50.888;4.746;2023-05-07T10:29:05;17.80;99.90
21570;DHT22;57598;50.888;4.746;2023-05-07T10:31:50;17.90;99.90
21570;DHT22;57598;50.888;4.746;2023-05-07T10:34:23;17.90;99.90
21570;DHT22;57598;50.888;4.746;2023-05-07T10:36:52;18.00;99.90
21570;DHT22;57598;50.888;4.746;2023-05-07T10:39:20;18.10;99.90
21570;DHT22;57598;50.888;4.746;2023-05-07T10:41:48;18.00;99.90
21570;DHT22;57598;50.888;4.746;2023-05-07T10:44:25;18.00;99.90
21570;DHT22;57598;50.888;4.746;2023-05-07T10:47:13;18.10;99.90
21570;DHT22;57598;50.888;4.746;2023-05-07T10:52:41;18.10;99.90
21570;DHT22;57598;50.888;4.746;2023-05-07T10:55:21;18.10;99.90
21570;DHT22;57598;50.888;4.746;2023-05-07T10:57:50;17.90;99.90
21570;DHT22;57598;50.888;4.746;2023-05-07T11:00:42;17.90;99.90
21570;DHT22;57598;50.888;4.746;2023-05-07T11:03:11;17.90;99.90
21570;DHT22;57598;50.888;4.746;2023-05-07T11:05:40;18.10;99.90
21570;DHT22;57598;50.888;4.746;2023-05-07T11:08:08;18.30;99.90
21570;DHT22;57598;50.888;4.746;2023-05-07T11:10:53;18.20;99.90
21570;DHT22;57598;50.888;4.746;2023-05-07T11:13:41;18.30;99.90
21570;DHT22;57598;50.888;4.746;2023-05-07T11:16:17;18.30;99.90
21570;DHT22;57598;50.888;4.746;2023-05-07T11:18:50;18.30;99.90
21570;DHT22;57598;50.888;4.746;2023-05-07T11:21:34;18.20;99.90
21570;DHT22;57598;50.888;4.746;2023-05-07T11:24:02;18.40;99.90
21570;DHT22;57598;50.888;4.746;2023-05-07T11:26:30;18.30;99.90
21570;DHT22;57598;50.888;4.746;2023-05-07T11:28:58;18.20;99.90
21570;DHT22;57598;50.888;4.746;2023-05-07T11:31:27;18.30;99.90
21570;DHT22;57598;50.888;4.746;2023-05-07T11:33:57;18.40;99.90
21570;DHT22;57598;50.888;4.746;2023-05-07T11:36:24;18.50;99.90
21570;DHT22;57598;50.888;4.746;2023-05-07T11:38:52;18.30;99.90
21570;DHT22;57598;50.888;4.746;2023-05-07T11:41:19;18.20;99.90
21570;DHT22;57598;50.888;4.746;2023-05-07T11:43:55;18.10;99.90
21570;DHT22;57598;50.888;4.746;2023-05-07T11:46:22;18.30;99.90
21570;DHT22;57598;50.888;4.746;2023-05-07T11:48:49;18.30;99.90
21570;DHT22;57598;50.888;4.746;2023-05-07T11:51:21;18.50;99.90
21570;DHT22;57598;50.888;4.746;2023-05-07T11:53:50;18.60;99.90
21570;DHT22;57598;50.888;4.746;2023-05-07T11:56:18;18.70;99.90
21570;DHT22;57598;50.888;4.746;2023-05-07T11:58:46;18.70;99.90
21570;DHT22;57598;50.888;4.746;2023-05-07T12:01:14;18.80;99.90
21570;DHT22;57598;50.888;4.746;2023-05-07T12:03:43;18.90;99.90
21570;DHT22;57598;50.888;4.746;2023-05-07T12:06:12;18.90;99.90
21570;DHT22;57598;50.888;4.746;2023-05-07T12:08:41;18.90;99.90
21570;DHT22;57598;50.888;4.746;2023-05-07T12:11:09;19.00;99.90
21570;DHT22;57598;50.888;4.746;2023-05-07T12:13:39;19.00;99.90
21570;DHT22;57598;50.888;4.746;2023-05-07T12:16:06;19.10;99.90
21570;DHT22;57598;50.888;4.746;2023-05-07T12:18:35;19.20;99.90
21570;DHT22;57598;50.888;4.746;2023-05-07T12:21:04;19.40;99.90
21570;DHT22;57598;50.888;4.746;2023-05-07T12:23:31;19.40;99.90
21570;DHT22;57598;50.888;4.746;2023-05-07T12:26:01;19.40;99.90
21570;DHT22;57598;50.888;4.746;2023-05-07T12:28:28;19.30;99.90
21570;DHT22;57598;50.888;4.746;2023-05-07T12:30:57;19.20;99.90
21570;DHT22;57598;50.888;4.746;2023-05-07T12:33:25;19.20;99.90
21570;DHT22;57598;50.888;4.746;2023-05-07T12:35:55;19.30;99.90
21570;DHT22;57598;50.888;4.746;2023-05-07T12:38:23;19.50;99.90
21570;DHT22;57598;50.888;4.746;2023-05-07T12:40:54;19.50;99.90
21570;DHT22;57598;50.888;4.746;2023-05-07T12:43:25;19.40;99.90
21570;DHT22;57598;50.888;4.746;2023-05-07T12:45:55;19.40;99.90
21570;DHT22;57598;50.888;4.746;2023-05-07T12:48:23;19.40;99.90
21570;DHT22;57598;50.888;4.746;2023-05-07T12:50:53;19.40;99.90
21570;DHT22;57598;50.888;4.746;2023-05-07T12:53:22;19.40;99.90
21570;DHT22;57598;50.888;4.746;2023-05-07T12:55:49;19.40;99.90
21570;DHT22;57598;50.888;4.746;2023-05-07T12:58:17;19.40;99.90
21570;DHT22;57598;50.888;4.746;2023-05-07T13:00:48;19.30;99.90
21570;DHT22;57598;50.888;4.746;2023-05-07T13:03:25;19.40;99.90
21570;DHT22;57598;50.888;4.746;2023-05-07T13:05:56;19.50;99.90
21570;DHT22;57598;50.888;4.746;2023-05-07T13:08:29;19.40;99.90
21570;DHT22;57598;50.888;4.746;2023-05-07T13:10:57;19.50;99.90
21570;DHT22;57598;50.888;4.746;2023-05-07T13:13:25;19.50;99.90
21570;DHT22;57598;50.888;4.746;2023-05-07T13:15:53;19.60;99.90
21570;DHT22;57598;50.888;4.746;2023-05-07T13:18:20;19.80;99.90
21570;DHT22;57598;50.888;4.746;2023-05-07T13:20:47;19.70;99.90
21570;DHT22;57598;50.888;4.746;2023-05-07T13:23:14;19.50;99.90
21570;DHT22;57598;50.888;4.746;2023-05-07T13:25:41;19.70;99.90
21570;DHT22;57598;50.888;4.746;2023-05-07T13:28:08;19.60;99.90
21570;DHT22;57598;50.888;4.746;2023-05-07T13:30:35;19.60;99.90
21570;DHT22;57598;50.888;4.746;2023-05-07T13:33:04;19.70;99.90
21570;DHT22;57598;50.888;4.746;2023-05-07T13:35:31;19.70;99.90
21570;DHT22;57598;50.888;4.746;2023-05-07T13:37:58;19.70;99.90
21570;DHT22;57598;50.888;4.746;2023-05-07T13:40:25;19.70;99.90
21570;DHT22;57598;50.888;4.746;2023-05-07T13:42:52;19.70;99.90
21570;DHT22;57598;50.888;4.746;2023-05-07T13:45:20;19.80;99.90
21570;DHT22;57598;50.888;4.746;2023-05-07T13:47:47;19.80;99.90
21570;DHT22;57598;50.888;4.746;2023-05-07T13:50:16;19.80;99.90
21570;DHT22;57598;50.888;4.746;2023-05-07T13:52:44;19.70;99.90
21570;DHT22;57598;50.888;4.746;2023-05-07T13:55:16;19.70;99.90
21570;DHT22;57598;50.888;4.746;2023-05-07T13:57:43;19.60;99.90
21570;DHT22;57598;50.888;4.746;2023-05-07T14:00:11;19.40;99.90
21570;DHT22;57598;50.888;4.746;2023-05-07T14:02:38;19.50;99.90
21570;DHT22;57598;50.888;4.746;2023-05-07T14:05:06;19.50;99.90
21570;DHT22;57598;50.888;4.746;2023-05-07T14:07:36;19.50;99.90
21570;DHT22;57598;50.888;4.746;2023-05-07T14:10:03;19.50;99.90
21570;DHT22;57598;50.888;4.746;2023-05-07T14:12:31;19.40;99.90
21570;DHT22;57598;50.888;4.746;2023-05-07T14:14:59;19.30;99.90
21570;DHT22;57598;50.888;4.746;2023-05-07T14:17:26;19.50;99.90
21570;DHT22;57598;50.888;4.746;2023-05-07T14:19:54;19.50;99.90
21570;DHT22;57598;50.888;4.746;2023-05-07T14:22:21;19.40;99.90
21570;DHT22;57598;50.888;4.746;2023-05-07T14:24:50;19.40;99.90
21570;DHT22;57598;50.888;4.746;2023-05-07T14:27:17;19.30;99.90
21570;DHT22;57598;50.888;4.746;2023-05-07T14:29:44;19.40;99.90
21570;DHT22;57598;50.888;4.746;2023-05-07T14:32:16;19.40;99.90
21570;DHT22;57598;50.888;4.746;2023-05-07T14:34:43;19.50;99.90
21570;DHT22;57598;50.888;4.746;2023-05-07T14:37:10;19.40;99.90
21570;DHT22;57598;50.888;4.746;2023-05-07T14:39:37;19.50;99.90
21570;DHT22;57598;50.888;4.746;2023-05-07T14:42:06;19.60;99.90
21570;DHT22;57598;50.888;4.746;2023-05-07T14:44:34;19.70;99.90
21570;DHT22;57598;50.888;4.746;2023-05-07T14:47:01;19.40;99.90
21570;DHT22;57598;50.888;4.746;2023-05-07T14:49:28;19.30;99.90
21570;DHT22;57598;50.888;4.746;2023-05-07T14:51:57;19.20;99.90
21570;DHT22;57598;50.888;4.746;2023-05-07T14:54:24;19.40;99.90
21570;DHT22;57598;50.888;4.746;2023-05-07T14:56:51;19.50;99.90
21570;DHT22;57598;50.888;4.746;2023-05-07T14:59:20;19.60;99.90
21570;DHT22;57598;50.888;4.746;2023-05-07T15:01:47;19.80;99.90
21570;DHT22;57598;50.888;4.746;2023-05-07T15:04:14;19.80;99.90
21570;DHT22;57598;50.888;4.746;2023-05-07T15:06:41;19.80;99.90
21570;DHT22;57598;50.888;4.746;2023-05-07T15:09:08;19.90;99.90
21570;DHT22;57598;50.888;4.746;2023-05-07T15:11:35;19.80;99.90
21570;DHT22;57598;50.888;4.746;2023-05-07T15:14:02;19.70;99.90
21570;DHT22;57598;50.888;4.746;2023-05-07T15:16:31;19.90;99.90
21570;DHT22;57598;50.888;4.746;2023-05-07T15:18:59;19.80;99.90
21570;DHT22;57598;50.888;4.746;2023-05-07T15:21:26;19.70;99.90
21570;DHT22;57598;50.888;4.746;2023-05-07T15:23:53;19.60;99.90
21570;DHT22;57598;50.888;4.746;2023-05-07T15:26:20;19.80;99.90
21570;DHT22;57598;50.888;4.746;2023-05-07T15:28:47;19.80;99.90
21570;DHT22;57598;50.888;4.746;2023-05-07T15:31:15;19.90;99.90
21570;DHT22;57598;50.888;4.746;2023-05-07T15:33:43;19.90;99.90
21570;DHT22;57598;50.888;4.746;2023-05-07T15:36:11;20.00;99.90
21570;DHT22;57598;50.888;4.746;2023-05-07T15:38:38;19.80;99.90